Meteorología y climatología de Navarra
Datos de la estación - Meteo Navarra

Estación de Pamplona GN

Altitud 455 m.


Datos desde el 09/11/2018 hasta el 10/11/2018 en horario solar
Los datos son PROVISIONALES

Anterior Página 1 de 1 Siguiente Descargar: Formato para Excel 2000 o superior   Formato csv   Formato para OpenOffice Calc
Fecha Temperatura Humedad relativa Radiación global Insolación Precipitación Velocidad viento 10 m Velocidad viento 10 m Dirección viento 10 m
ºC % W/m² s l/m² m/s km/h º
09/11/2018 0:00 8.3 92 0.0 0 1.3 1.4 4.9 118
09/11/2018 0:10 8.1 94 0.0 0 1.1 1.1 4.0 116
09/11/2018 0:20 8.0 94 0.0 0 0.4 0.6 2.2 86
09/11/2018 0:30 8.0 95 0.0 0 0.1 1.2 4.5 69
09/11/2018 0:40 7.9 95 0.0 0 0.2 1.7 5.9 53
09/11/2018 0:50 7.9 95 0.0 0 0.0 1.6 5.7 107
09/11/2018 1:00 7.9 94 0.0 0 0.0 0.9 3.3 114
09/11/2018 1:10 8.0 94 0.0 0 0.0 0.7 2.6 115
09/11/2018 1:20 8.0 94 0.0 0 0.0 1.4 5.1 137
09/11/2018 1:30 8.1 93 0.0 0 0.0 0.3 1.0 141
09/11/2018 1:40 8.1 93 0.0 0 0.0 0.6 2.1 207
09/11/2018 1:50 8.3 91 0.0 0 0.0 0.6 2.3 220
09/11/2018 2:00 8.4 92 0.0 0 0.0 0.3 0.9 278
09/11/2018 2:10 8.2 94 0.0 0 0.0 0.7 2.6 346
09/11/2018 2:20 8.1 95 0.0 0 0.0 0.1 0.5 342
09/11/2018 2:30 8.1 95 0.0 0 0.0 0.1 0.4 337
09/11/2018 2:40 8.2 94 0.0 0 0.0 0.1 0.3 280
09/11/2018 2:50 8.2 94 0.0 0 0.0 0.3 1.0 304
09/11/2018 3:00 8.1 95 0.0 0 0.0 0.6 2.0 328
09/11/2018 3:10 8.3 94 0.0 0 0.0 1.0 3.4 303
09/11/2018 3:20 8.3 94 0.0 0 0.0 0.6 2.1 276
09/11/2018 3:30 8.3 93 0.0 0 0.0 1.2 4.4 280
09/11/2018 3:40 8.3 92 0.0 0 0.0 1.2 4.4 281
09/11/2018 3:50 8.4 91 0.0 0 0.0 1.1 3.9 295
09/11/2018 4:00 8.5 89 0.0 0 0.0 1.4 4.9 289
09/11/2018 4:10 8.5 88 0.0 0 0.0 1.8 6.4 283
09/11/2018 4:20 8.4 87 0.0 0 0.0 1.9 6.9 292
09/11/2018 4:30 8.4 88 0.0 0 0.0 2.1 7.7 288
09/11/2018 4:40 8.3 88 0.0 0 0.0 1.5 5.3 288
09/11/2018 4:50 8.2 89 0.0 0 0.0 1.1 3.9 307
09/11/2018 5:00 8.2 90 0.0 0 0.0 0.9 3.4 293
09/11/2018 5:10 8.3 89 0.0 0 0.0 1.0 3.7 284
09/11/2018 5:20 8.3 89 0.0 0 0.0 0.6 2.2 300
09/11/2018 5:30 8.3 89 0.0 0 0.0 0.8 3.0 283
09/11/2018 5:40 8.4 89 0.0 0 0.0 1.8 6.4 268
09/11/2018 5:50 8.5 88 0.0 0 0.0 1.6 5.8 276
09/11/2018 6:00 8.4 89 0.0 0 0.0 1.2 4.2 278
09/11/2018 6:10 8.3 90 0.0 0 0.0 1.1 3.9 280
09/11/2018 6:20 8.3 90 0.0 0 0.0 1.0 3.7 280
09/11/2018 6:30 8.2 91 0.0 0 0.0 1.5 5.5 278
09/11/2018 6:40 8.2 92 0.0 0 0.0 0.5 1.8 313
09/11/2018 6:50 8.2 92 0.0 0 0.1 0.4 1.4 272
09/11/2018 7:00 8.2 91 0.0 0 0.0 0.2 0.7 269
09/11/2018 7:10 8.2 92 0.0 0 0.0 0.4 1.3 256
09/11/2018 7:20 8.2 90 6.3 0 0.0 1.0 3.7 251
09/11/2018 7:30 8.4 89 16.7 0 0.0 1.7 5.9 259
09/11/2018 7:40 8.4 88 20.3 0 0.0 1.5 5.5 273
09/11/2018 7:50 8.5 87 26.5 0 0.0 1.5 5.4 287
09/11/2018 8:00 8.6 86 62.5 48 0.0 1.0 3.4 298
09/11/2018 8:10 8.8 84 58.1 0 0.0 0.9 3.1 303
09/11/2018 8:20 8.9 83 54.5 0 0.0 1.0 3.5 293
09/11/2018 8:30 9.1 81 66.2 0 0.0 1.1 3.9 308
09/11/2018 8:40 9.1 81 44.9 0 0.0 1.0 3.4 297
09/11/2018 8:50 9.2 80 69.8 0 0.0 1.2 4.5 283
09/11/2018 9:00 9.3 79 97.5 0 0.0 1.2 4.4 281
09/11/2018 9:10 9.4 79 135.3 0 0.0 1.0 3.5 283
09/11/2018 9:20 9.6 78 116.3 0 0.0 1.3 4.7 273
09/11/2018 9:30 9.7 79 90.8 0 0.0 1.5 5.5 277
09/11/2018 9:40 9.7 78 98.3 0 0.0 1.4 5.1 275
09/11/2018 9:50 9.8 78 129.2 0 0.0 1.8 6.4 295
09/11/2018 10:00 9.8 78 145.5 0 0.0 2.3 8.1 291
09/11/2018 10:10 9.9 78 171.9 10 0.0 2.4 8.5 296
09/11/2018 10:20 10.0 80 167.4 0 0.0 0.7 2.5 308
09/11/2018 10:30 10.2 80 244.9 262 0.0 1.3 4.7 310
09/11/2018 10:40 10.4 78 336.0 600 0.0 1.7 6.0 308
09/11/2018 10:50 10.6 76 420.6 600 0.0 1.6 5.9 300
09/11/2018 11:00 10.9 75 238.8 172 0.0 1.0 3.7 317
09/11/2018 11:10 10.9 74 308.7 538 0.0 1.9 6.7 286
09/11/2018 11:20 10.9 73 230.2 0 0.0 2.7 9.8 275
09/11/2018 11:30 10.9 73 257.2 222 0.0 2.3 8.4 285
09/11/2018 11:40 11.0 74 277.7 330 0.0 1.7 6.0 287
09/11/2018 11:50 11.4 72 475.7 482 0.0 1.0 3.7 258
09/11/2018 12:00 11.7 70 464.8 558 0.0 0.7 2.5 211
09/11/2018 12:10 12.0 68 263.1 122 0.0 0.5 1.8 253
09/11/2018 12:20 11.9 67 246.3 40 0.0 1.4 5.1 247
09/11/2018 12:30 11.7 66 257.3 152 0.0 1.9 7.0 254
09/11/2018 12:40 11.8 64 275.5 172 0.0 1.3 4.6 266
09/11/2018 12:50 11.9 61 331.1 364 0.0 0.8 2.7 297
09/11/2018 13:00 12.2 59 387.4 478 0.0 1.1 3.8 276
09/11/2018 13:10 12.3 62 461.0 600 0.0 0.7 2.4 357
09/11/2018 13:20 12.5 62 452.6 574 0.0 0.5 1.8 53
09/11/2018 13:30 12.9 61 398.1 502 0.0 0.7 2.5 187
09/11/2018 13:40 12.9 59 296.1 386 0.0 1.0 3.7 191
09/11/2018 13:50 12.9 61 515.7 600 0.0 0.9 3.1 155
09/11/2018 14:00 13.5 59 458.5 600 0.0 1.0 3.5 173
09/11/2018 14:10 13.3 59 228.9 270 0.0 1.2 4.2 132
09/11/2018 14:20 13.2 59 276.2 332 0.0 1.0 3.7 154
09/11/2018 14:30 13.7 55 376.2 600 0.0 2.1 7.6 215
09/11/2018 14:40 14.0 48 327.7 600 0.0 2.1 7.7 238
09/11/2018 14:50 14.1 48 293.6 600 0.0 2.5 9.1 215
09/11/2018 15:00 13.9 48 275.2 600 0.0 2.4 8.6 212
09/11/2018 15:10 13.9 48 227.1 600 0.0 2.3 8.4 214
09/11/2018 15:20 13.7 47 210.0 600 0.0 3.0 10.9 215
09/11/2018 15:30 13.7 45 177.3 548 0.0 2.4 8.7 226
09/11/2018 15:40 13.7 45 156.3 560 0.0 2.2 8.0 227
09/11/2018 15:50 13.4 47 30.8 0 0.0 3.0 10.7 232
09/11/2018 16:00 12.9 49 50.2 166 0.0 3.0 10.7 243
09/11/2018 16:10 12.9 50 76.8 538 0.0 2.2 8.0 229
09/11/2018 16:20 12.8 51 45.7 410 0.0 1.8 6.6 211
09/11/2018 16:30 12.6 52 19.1 2 0.0 2.3 8.1 222
09/11/2018 16:40 12.4 52 0.0 0 0.0 2.9 10.5 239
09/11/2018 16:50 12.2 51 0.0 0 0.0 2.9 10.3 236
09/11/2018 17:00 12.1 51 0.0 0 0.0 3.0 10.9 232
09/11/2018 17:10 12.0 51 0.0 0 0.0 3.2 11.4 229
09/11/2018 17:20 12.0 51 0.0 0 0.0 3.2 11.7 216
09/11/2018 17:30 11.9 52 0.0 0 0.0 2.7 9.6 211
09/11/2018 17:40 11.9 53 0.0 0 0.0 2.8 9.9 218
09/11/2018 17:50 11.8 54 0.0 0 0.0 2.9 10.3 211
09/11/2018 18:00 11.6 55 0.0 0 0.0 3.0 10.8 209
09/11/2018 18:10 11.7 56 0.0 0 0.0 2.4 8.6 216
09/11/2018 18:20 11.7 57 0.0 0 0.0 2.7 9.9 209
09/11/2018 18:30 11.7 58 0.0 0 0.0 2.8 10.0 211
09/11/2018 18:40 11.7 59 0.0 0 0.0 2.4 8.7 228
09/11/2018 18:50 11.7 59 0.0 0 0.0 1.7 6.3 213
09/11/2018 19:00 11.7 60 0.0 0 0.0 0.6 2.3 165
09/11/2018 19:10 11.7 61 0.0 0 0.0 1.5 5.5 196
09/11/2018 19:20 11.7 62 0.0 0 0.0 1.9 6.7 213
09/11/2018 19:30 11.8 62 0.0 0 0.0 2.0 7.1 197
09/11/2018 19:40 11.6 66 0.0 0 0.0 1.1 4.1 201
09/11/2018 19:50 11.5 68 0.0 0 0.0 1.6 5.9 215
09/11/2018 20:00 11.5 66 0.0 0 0.0 1.9 6.8 198
09/11/2018 20:10 11.5 67 0.0 0 0.0 1.2 4.2 180
09/11/2018 20:20 11.5 65 0.0 0 0.0 2.0 7.1 199
09/11/2018 20:30 11.5 65 0.0 0 0.0 1.6 5.6 214
09/11/2018 20:40 11.4 64 0.0 0 0.0 1.7 6.2 168
09/11/2018 20:50 11.2 64 0.0 0 0.0 1.5 5.3 140
09/11/2018 21:00 11.0 65 0.0 0 0.0 1.4 4.9 151
09/11/2018 21:10 10.9 66 0.0 0 0.0 1.7 6.0 134
09/11/2018 21:20 10.8 68 0.0 0 0.0 1.1 3.8 129
09/11/2018 21:30 10.8 68 0.0 0 0.0 1.0 3.7 152
09/11/2018 21:40 10.8 66 0.0 0 0.0 1.4 5.0 175
09/11/2018 21:50 10.9 66 0.0 0 0.0 1.0 3.5 147
09/11/2018 22:00 10.6 68 0.0 0 0.0 2.1 7.5 108
09/11/2018 22:10 10.5 67 0.0 0 0.0 2.0 7.1 108
09/11/2018 22:20 10.0 73 0.0 0 0.0 1.2 4.4 66
09/11/2018 22:30 9.7 75 0.0 0 0.0 0.9 3.4 44
09/11/2018 22:40 9.7 75 0.0 0 0.0 1.0 3.5 48
09/11/2018 22:50 9.6 74 0.0 0 0.0 0.7 2.6 42
09/11/2018 23:00 9.8 71 0.0 0 0.0 1.2 4.4 137
09/11/2018 23:10 10.1 67 0.0 0 0.0 1.2 4.2 82
09/11/2018 23:20 10.3 67 0.0 0 0.0 2.2 7.8 96
09/11/2018 23:30 10.4 65 0.0 0 0.0 2.2 8.0 124
09/11/2018 23:40 10.6 64 0.0 0 0.0 1.6 5.8 119
09/11/2018 23:50 10.8 64 0.0 0 0.0 2.1 7.5 98
Anterior Página 1 de 1 Siguiente

NOTA: Tipo de datos según el color:
   - Valores diarios o 10 minutos correctos
   - Valores diarios calculados a partir de un número de datos 10 minutos menor que 144 y mayor que 120, o de un número de datos semihorarios menor que 48 y mayor que 40 (caso de las estaciones de Riegos de Navarra y del MARM)
   - Valores diez minutos estimados


Contacto        Enlaces        Aviso legal